Time;durP1;ratioP1;P1;durP2;ratioP2;P2;SDS_P1;SDS_P2;PMS_P1;PMS_P2;Temp;Humidity;BMP_temperature;BMP_pressure;BME280_temperature;BME280_humidity;BME280_pressure;Samples;Min_cycle;Max_cycle;Signal;HPM_P1;HPM_P2
2022/01/10 00:00:37;;;;;;;8.65;3.95;;;3.70;99.90;;;;;;5035971;28;20036;-65
2022/01/10 00:03:04;;;;;;;9.63;4.60;;;3.80;99.90;;;;;;5033146;28;20147;-67
2022/01/10 00:05:30;;;;;;;9.73;4.10;;;3.90;99.90;;;;;;5033253;28;20055;-65
2022/01/10 00:07:56;;;;;;;11.35;4.22;;;3.80;99.90;;;;;;5033051;28;20039;-65
2022/01/10 00:10:21;;;;;;;7.47;3.90;;;3.80;99.90;;;;;;5032934;28;20402;-66
2022/01/10 00:12:48;;;;;;;7.07;3.50;;;3.80;99.90;;;;;;5032806;28;20390;-66
2022/01/10 00:15:16;;;;;;;7.43;3.65;;;3.80;99.90;;;;;;5032980;28;20029;-66
2022/01/10 00:17:43;;;;;;;7.40;4.22;;;3.80;99.90;;;;;;5032811;28;20516;-66
2022/01/10 00:20:11;;;;;;;9.40;4.57;;;3.80;99.90;;;;;;5032911;28;20449;-65
2022/01/10 00:22:37;;;;;;;8.13;4.40;;;3.80;99.90;;;;;;5032606;28;20075;-65
2022/01/10 00:25:06;;;;;;;9.10;4.43;;;3.80;99.90;;;;;;5033355;28;20017;-65
2022/01/10 00:27:32;;;;;;;8.10;4.28;;;3.80;99.90;;;;;;5032883;28;20474;-65
2022/01/10 00:29:58;;;;;;;9.75;4.93;;;3.70;99.90;;;;;;5033253;28;20033;-65
2022/01/10 00:32:24;;;;;;;9.97;4.80;;;3.70;99.90;;;;;;5033873;28;20033;-66
2022/01/10 00:34:51;;;;;;;11.03;4.63;;;3.80;99.90;;;;;;5036692;28;20466;-65
2022/01/10 00:37:17;;;;;;;12.43;4.75;;;3.70;99.90;;;;;;5035220;28;20079;-65
2022/01/10 00:39:42;;;;;;;12.88;4.60;;;3.70;99.90;;;;;;5036789;28;20485;-66
2022/01/10 00:42:08;;;;;;;12.60;4.80;;;3.70;99.90;;;;;;5036743;28;20037;-66
2022/01/10 00:44:38;;;;;;;14.93;5.50;;;3.70;99.90;;;;;;5036728;28;20026;-65
2022/01/10 00:47:04;;;;;;;11.85;4.97;;;3.70;99.90;;;;;;5035187;28;20032;-65
2022/01/10 00:49:30;;;;;;;9.88;4.78;;;3.60;99.90;;;;;;5036356;28;20026;-66
2022/01/10 00:51:56;;;;;;;9.95;4.68;;;3.70;99.90;;;;;;5036317;28;20037;-65
2022/01/10 00:54:21;;;;;;;8.17;4.67;;;3.60;99.90;;;;;;5036374;28;20493;-65
2022/01/10 00:56:47;;;;;;;11.53;5.07;;;3.60;99.90;;;;;;5036171;28;20451;-66
2022/01/10 00:59:13;;;;;;;8.50;4.23;;;3.50;99.90;;;;;;5035002;28;20113;-66
2022/01/10 01:01:39;;;;;;;7.63;4.60;;;3.50;99.90;;;;;;5036289;28;20022;-66
2022/01/10 01:04:05;;;;;;;;;;;3.50;99.90;;;;;;5035891;28;20045;-66
2022/01/10 01:06:31;;;;;;;9.27;4.57;;;3.70;99.90;;;;;;5036242;28;19986;-66
2022/01/10 01:09:01;;;;;;;6.93;4.93;;;3.80;99.90;;;;;;5036471;28;20022;-65
2022/01/10 01:13:59;;;;;;;11.53;5.83;;;3.70;99.90;;;;;;5036354;28;20024;-66
2022/01/10 01:24:27;;;;;;;8.52;5.13;;;3.50;99.90;;;;;;5036388;28;20025;-66
2022/01/10 01:26:54;;;;;;;10.98;6.05;;;3.50;99.90;;;;;;5036111;28;20025;-66
2022/01/10 01:29:28;;;;;;;11.32;6.57;;;3.50;99.90;;;;;;5035797;28;20022;-66
2022/01/10 01:31:56;;;;;;;12.82;6.45;;;3.50;99.90;;;;;;5035644;28;20029;-66
2022/01/10 01:34:23;;;;;;;11.25;7.40;;;3.50;99.90;;;;;;5035944;28;20033;-66
2022/01/10 01:36:52;;;;;;;16.50;7.47;;;3.50;99.90;;;;;;5037197;28;20072;-66
2022/01/10 01:39:24;;;;;;;15.35;8.65;;;3.50;99.90;;;;;;5035335;28;20362;-66
2022/01/10 01:41:56;;;;;;;12.98;7.30;;;3.50;99.90;;;;;;5035816;28;20014;-66
2022/01/10 01:44:21;;;;;;;12.05;6.90;;;3.50;99.90;;;;;;5035455;28;20026;-66
2022/01/10 01:46:47;;;;;;;13.47;7.20;;;3.50;99.90;;;;;;5035483;28;20074;-66
2022/01/10 01:49:13;;;;;;;12.47;7.20;;;3.50;99.90;;;;;;5035484;28;20036;-66
2022/01/10 01:51:40;;;;;;;10.80;7.07;;;3.50;99.90;;;;;;5035716;28;20030;-66
2022/01/10 01:54:06;;;;;;;11.82;7.32;;;3.80;99.90;;;;;;5035738;28;20037;-67
2022/01/10 01:56:32;;;;;;;;;;;3.80;99.90;;;;;;5037053;28;20383;-66
2022/01/10 01:58:58;;;;;;;16.63;8.25;;;3.70;99.90;;;;;;5035745;28;19905;-65
2022/01/10 02:01:25;;;;;;;16.02;8.30;;;3.60;99.90;;;;;;5035418;28;20033;-66
2022/01/10 02:03:51;;;;;;;13.80;8.43;;;3.60;99.90;;;;;;5035533;28;20382;-67
2022/01/10 02:06:17;;;;;;;15.23;7.85;;;3.60;99.90;;;;;;5035596;28;20108;-66
2022/01/10 02:08:44;;;;;;;14.98;8.75;;;3.50;99.90;;;;;;5034261;28;20057;-66
2022/01/10 02:11:12;;;;;;;11.32;7.30;;;3.50;99.90;;;;;;5034969;28;20022;-65
2022/01/10 02:13:38;;;;;;;13.85;8.02;;;3.50;99.90;;;;;;5035050;28;20426;-66
2022/01/10 02:16:06;;;;;;;13.77;8.70;;;3.50;99.90;;;;;;5035101;28;20028;-66
2022/01/10 02:18:34;;;;;;;13.55;8.02;;;3.50;99.90;;;;;;5034859;28;20025;-65
2022/01/10 02:21:01;;;;;;;14.88;8.90;;;3.50;99.90;;;;;;5034574;28;20035;-66
2022/01/10 02:23:29;;;;;;;12.95;7.95;;;3.40;99.90;;;;;;5034740;28;20355;-65
2022/01/10 02:25:56;;;;;;;14.68;8.38;;;3.40;99.90;;;;;;5034739;28;20027;-65
2022/01/10 02:28:22;;;;;;;17.90;9.73;;;3.40;99.90;;;;;;5034858;28;20104;-66
2022/01/10 02:30:55;;;;;;;15.75;9.27;;;3.40;99.90;;;;;;5034775;28;20034;-65
2022/01/10 02:33:21;;;;;;;16.95;9.15;;;3.40;99.90;;;;;;5034534;28;20466;-65
2022/01/10 02:38:31;;;;;;;18.70;9.63;;;3.40;99.90;;;;;;5035189;28;20048;-65
2022/01/10 02:40:58;;;;;;;14.02;8.75;;;3.30;99.90;;;;;;5035626;28;20378;-65
2022/01/10 02:43:24;;;;;;;17.25;9.25;;;3.40;99.90;;;;;;5034846;28;20029;-65
2022/01/10 02:45:50;;;;;;;14.87;9.37;;;3.50;99.90;;;;;;5033490;28;20044;-65
2022/01/10 02:48:16;;;;;;;17.52;9.82;;;3.50;99.90;;;;;;5034916;28;20026;-65
2022/01/10 02:50:41;;;;;;;19.03;9.90;;;3.40;99.90;;;;;;5034856;28;20108;-65
2022/01/10 02:53:07;;;;;;;19.63;10.30;;;3.40;99.90;;;;;;5035002;28;20045;-65
2022/01/10 02:55:33;;;;;;;19.05;9.77;;;3.30;99.90;;;;;;5033146;28;20083;-65
2022/01/10 02:57:59;;;;;;;14.53;9.27;;;3.30;99.90;;;;;;5034760;28;20029;-65
2022/01/10 03:00:26;;;;;;;15.45;9.95;;;3.40;99.90;;;;;;5033897;28;20120;-65
2022/01/10 03:02:54;;;;;;;;;;;3.40;99.90;;;;;;5033073;28;20030;-66
2022/01/10 03:05:20;;;;;;;;;;;3.40;99.90;;;;;;5033139;28;19952;-65
2022/01/10 03:07:47;;;;;;;18.00;9.48;;;3.40;99.90;;;;;;5034378;28;19956;-66
2022/01/10 03:10:13;;;;;;;18.60;10.00;;;3.40;99.90;;;;;;5034110;28;20045;-66
2022/01/10 03:12:38;;;;;;;17.33;9.50;;;3.30;99.90;;;;;;5034410;28;20022;-65
2022/01/10 03:15:07;;;;;;;24.47;10.53;;;3.30;99.90;;;;;;5034320;28;20021;-66
2022/01/10 03:17:34;;;;;;;15.98;10.05;;;3.30;99.90;;;;;;5033773;28;20548;-66
2022/01/10 03:19:59;;;;;;;;;;;3.30;99.90;;;;;;5034160;28;20414;-66
2022/01/10 03:22:26;;;;;;;16.70;10.05;;;3.30;99.90;;;;;;5033745;28;19905;-66
2022/01/10 03:24:53;;;;;;;17.23;10.00;;;3.30;99.90;;;;;;5034010;28;20097;-66
2022/01/10 03:27:19;;;;;;;20.55;10.15;;;3.30;99.90;;;;;;5033673;28;20029;-66
2022/01/10 03:29:44;;;;;;;23.40;10.63;;;3.30;99.90;;;;;;5033725;28;20032;-66
2022/01/10 03:32:11;;;;;;;20.03;10.40;;;3.30;99.90;;;;;;5032491;28;20037;-66
2022/01/10 03:34:37;;;;;;;24.20;11.00;;;3.50;99.90;;;;;;5032439;28;20470;-65
2022/01/10 03:37:04;;;;;;;21.55;11.52;;;3.40;99.90;;;;;;5033630;28;20034;-65
2022/01/10 03:39:29;;;;;;;25.27;12.40;;;3.40;99.90;;;;;;5033804;28;20104;-65
2022/01/10 03:41:55;;;;;;;26.10;11.10;;;3.50;99.90;;;;;;5032342;28;20064;-64
2022/01/10 03:44:20;;;;;;;23.43;12.10;;;3.40;99.90;;;;;;5033686;28;20064;-65
2022/01/10 03:46:47;;;;;;;23.73;10.70;;;3.40;99.90;;;;;;5033406;28;20037;-65
2022/01/10 03:49:13;;;;;;;;;;;3.40;99.90;;;;;;5034144;28;20030;-66
2022/01/10 03:51:39;;;;;;;17.33;9.75;;;3.30;99.90;;;;;;5033792;28;20047;-66
2022/01/10 03:54:04;;;;;;;18.97;10.30;;;3.30;99.90;;;;;;5033446;28;20029;-66
2022/01/10 03:56:31;;;;;;;20.67;10.40;;;3.30;99.90;;;;;;5033168;28;20021;-66
2022/01/10 03:58:57;;;;;;;17.77;10.55;;;3.40;99.90;;;;;;5031846;28;20475;-66
2022/01/10 04:01:23;;;;;;;17.00;10.00;;;3.50;99.90;;;;;;5033464;28;20033;-66
2022/01/10 04:03:48;;;;;;;15.63;10.37;;;3.40;99.90;;;;;;5033425;28;20033;-66
2022/01/10 04:06:14;;;;;;;15.73;9.93;;;3.40;99.90;;;;;;5032692;28;20478;-64
2022/01/10 04:08:40;;;;;;;14.87;10.70;;;3.40;99.90;;;;;;5032896;28;20437;-65
2022/01/10 04:11:06;;;;;;;16.13;10.60;;;3.50;99.90;;;;;;5033245;28;20044;-65
2022/01/10 04:13:31;;;;;;;18.13;11.15;;;3.40;99.90;;;;;;5032853;28;20343;-65
2022/01/10 04:15:57;;;;;;;19.23;11.00;;;3.40;99.90;;;;;;5031626;28;20080;-66
2022/01/10 04:18:23;;;;;;;18.13;10.93;;;3.40;99.90;;;;;;5031409;28;20287;-65
2022/01/10 04:20:49;;;;;;;23.03;12.40;;;3.40;99.90;;;;;;5033053;28;20017;-66
2022/01/10 04:23:17;;;;;;;21.15;11.93;;;3.40;99.90;;;;;;5032814;28;20105;-66
2022/01/10 04:25:42;;;;;;;25.52;12.23;;;3.40;99.90;;;;;;5033687;28;20057;-66
2022/01/10 04:28:08;;;;;;;24.50;12.10;;;3.40;99.90;;;;;;5033048;28;20071;-65
2022/01/10 04:30:34;;;;;;;31.60;12.70;;;3.40;99.90;;;;;;5032980;28;20033;-66
2022/01/10 04:33:02;;;;;;;23.95;12.73;;;3.40;99.90;;;;;;5032914;28;20045;-66
2022/01/10 04:35:29;;;;;;;22.60;12.10;;;3.40;99.90;;;;;;5033663;28;20086;-64
2022/01/10 04:37:55;;;;;;;24.05;13.02;;;3.50;99.90;;;;;;5032650;28;20030;-64
2022/01/10 04:40:23;;;;;;;22.10;12.02;;;3.50;99.90;;;;;;5032843;28;20026;-64
2022/01/10 04:42:50;;;;;;;20.25;11.65;;;3.50;99.90;;;;;;5032745;28;20025;-64
2022/01/10 04:45:16;;;;;;;;;;;3.50;99.90;;;;;;5033252;28;20025;-64
2022/01/10 04:47:41;;;;;;;21.55;11.27;;;3.60;99.90;;;;;;5032795;28;19905;-64
2022/01/10 04:50:44;;;;;;;24.53;12.03;;;3.60;99.90;;;;;;5032728;28;20061;-64
2022/01/10 04:53:08;;;;;;;19.73;11.10;;;3.60;99.90;;;;;;5033255;28;20044;-66
2022/01/10 04:55:34;;;;;;;22.00;11.97;;;3.60;99.90;;;;;;5032748;28;20471;-67
2022/01/10 04:58:00;;;;;;;18.85;11.70;;;3.60;99.90;;;;;;5033295;28;20454;-67
2022/01/10 05:00:25;;;;;;;21.93;12.30;;;3.50;99.90;;;;;;5032683;28;20037;-64
2022/01/10 05:02:52;;;;;;;20.83;11.87;;;3.50;99.90;;;;;;5032684;28;20021;-64
2022/01/10 05:05:17;;;;;;;;;;;3.50;99.90;;;;;;5033250;28;20025;-65
2022/01/10 05:07:43;;;;;;;22.48;12.20;;;3.40;99.90;;;;;;5031937;28;19911;-65
2022/01/10 05:10:09;;;;;;;22.40;11.73;;;3.50;99.90;;;;;;5032803;28;20107;-64
2022/01/10 05:12:35;;;;;;;21.15;12.18;;;3.50;99.90;;;;;;5032615;28;20287;-64
2022/01/10 05:15:00;;;;;;;21.67;11.30;;;3.50;99.90;;;;;;5032597;28;20033;-64
2022/01/10 05:17:26;;;;;;;23.90;11.70;;;3.50;99.90;;;;;;5032516;28;20061;-64
2022/01/10 05:19:52;;;;;;;18.57;11.83;;;3.50;99.90;;;;;;5035897;28;20032;-65
2022/01/10 05:22:17;;;;;;;19.20;12.30;;;3.40;99.90;;;;;;5036010;28;20033;-67
2022/01/10 05:24:43;;;;;;;29.73;13.90;;;3.40;99.90;;;;;;5036563;28;20025;-66
2022/01/10 05:27:09;;;;;;;15.97;10.97;;;3.40;99.90;;;;;;5037483;28;20390;-65
2022/01/10 05:29:34;;;;;;;21.57;12.03;;;3.40;99.90;;;;;;5034648;28;20037;-64
2022/01/10 05:32:00;;;;;;;20.87;13.00;;;3.40;99.90;;;;;;5034542;28;20128;-65
2022/01/10 05:34:26;;;;;;;21.27;12.23;;;3.30;99.90;;;;;;5037096;28;20095;-66
2022/01/10 05:36:52;;;;;;;22.90;13.03;;;3.30;99.90;;;;;;5035783;28;20288;-65
2022/01/10 05:39:18;;;;;;;18.48;10.77;;;3.40;99.90;;;;;;5035752;28;20022;-65
2022/01/10 05:41:44;;;;;;;19.95;11.20;;;3.50;99.90;;;;;;5035744;28;20047;-65
2022/01/10 05:44:10;;;;;;;20.40;11.45;;;3.70;99.90;;;;;;5035882;28;20071;-65
2022/01/10 05:46:37;;;;;;;18.20;9.98;;;3.80;99.90;;;;;;5035528;28;20040;-65
2022/01/10 05:49:04;;;;;;;23.67;12.60;;;3.70;99.90;;;;;;5035705;28;20017;-66
2022/01/10 05:51:34;;;;;;;;;;;3.60;99.90;;;;;;5036227;28;20101;-63
2022/01/10 05:54:01;;;;;;;21.02;10.60;;;3.60;99.90;;;;;;5037029;28;20349;-64
2022/01/10 05:56:27;;;;;;;17.73;11.30;;;3.60;99.90;;;;;;5035739;28;20498;-64
2022/01/10 05:58:53;;;;;;;24.37;11.37;;;3.60;99.90;;;;;;5035169;28;20027;-64
2022/01/10 06:01:19;;;;;;;17.25;10.38;;;3.60;99.90;;;;;;5035361;28;20053;-64
2022/01/10 06:03:44;;;;;;;20.27;11.25;;;3.60;99.90;;;;;;5035299;28;20034;-64
2022/01/10 06:06:10;;;;;;;21.10;11.23;;;3.50;99.90;;;;;;5035879;28;20028;-64
2022/01/10 06:08:35;;;;;;;17.30;11.30;;;3.50;99.90;;;;;;5036324;28;20076;-64
2022/01/10 06:11:01;;;;;;;17.63;10.40;;;3.50;99.90;;;;;;5035765;28;20030;-64
2022/01/10 06:13:27;;;;;;;19.10;11.30;;;3.70;99.90;;;;;;5035932;28;20421;-64
2022/01/10 06:15:53;;;;;;;20.80;10.95;;;3.70;99.90;;;;;;5034291;28;20120;-64
2022/01/10 06:18:19;;;;;;;18.73;10.40;;;3.60;99.90;;;;;;5033659;28;20538;-65
2022/01/10 06:20:45;;;;;;;23.67;11.93;;;3.60;99.90;;;;;;5034742;28;20021;-64
2022/01/10 06:23:11;;;;;;;22.03;10.27;;;3.60;99.90;;;;;;5034860;28;20273;-64
2022/01/10 06:25:38;;;;;;;23.13;12.07;;;3.60;99.90;;;;;;5037048;28;20519;-65
2022/01/10 06:28:05;;;;;;;18.52;10.40;;;3.70;99.90;;;;;;5043090;28;20076;-66
2022/01/10 06:30:31;;;;;;;20.30;11.27;;;3.80;99.90;;;;;;5037136;28;20022;-65
2022/01/10 06:32:57;;;;;;;20.33;10.77;;;3.80;99.90;;;;;;5034167;28;20052;-65
2022/01/10 06:35:24;;;;;;;19.73;10.57;;;3.90;99.90;;;;;;5035125;28;20054;-65
2022/01/10 06:37:50;;;;;;;19.02;11.20;;;4.10;99.90;;;;;;5034624;28;20478;-66
2022/01/10 06:40:16;;;;;;;23.55;11.40;;;4.00;99.90;;;;;;5034766;28;20033;-65
2022/01/10 06:42:42;;;;;;;19.58;11.05;;;3.90;99.90;;;;;;5033543;28;20117;-65
2022/01/10 06:45:09;;;;;;;18.47;11.10;;;3.80;99.90;;;;;;5036792;28;20048;-65
2022/01/10 06:47:35;;;;;;;22.40;12.73;;;3.80;99.90;;;;;;5036493;28;20029;-65
2022/01/10 06:50:00;;;;;;;21.47;11.37;;;3.70;99.90;;;;;;5034831;28;20399;-65
2022/01/10 06:52:26;;;;;;;23.80;11.80;;;3.70;99.90;;;;;;5034254;28;20025;-65
2022/01/10 06:54:52;;;;;;;24.40;11.50;;;3.70;99.90;;;;;;5034050;28;20022;-65
2022/01/10 06:57:18;;;;;;;18.90;11.13;;;3.70;99.90;;;;;;5034278;28;20487;-65
2022/01/10 06:59:45;;;;;;;19.05;11.40;;;3.60;99.90;;;;;;5035047;28;20410;-65
2022/01/10 07:02:10;;;;;;;20.63;11.13;;;3.60;99.90;;;;;;5040178;28;20021;-66
2022/01/10 07:04:36;;;;;;;20.37;12.17;;;3.60;99.90;;;;;;5035156;28;20521;-65
2022/01/10 07:07:02;;;;;;;20.65;12.18;;;3.60;99.90;;;;;;5036390;28;20056;-66
2022/01/10 07:09:28;;;;;;;21.35;11.35;;;3.80;99.90;;;;;;5035115;28;20033;-65
2022/01/10 07:11:54;;;;;;;24.92;11.85;;;3.80;99.90;;;;;;5040858;28;20084;-66
2022/01/10 07:14:20;;;;;;;19.20;11.37;;;3.80;99.90;;;;;;5040604;28;20033;-67
2022/01/10 07:16:48;;;;;;;19.73;11.07;;;3.70;99.90;;;;;;5034774;28;20260;-66
2022/01/10 07:19:14;;;;;;;21.83;11.75;;;3.90;99.90;;;;;;5033892;28;20075;-66
2022/01/10 07:21:40;;;;;;;24.03;13.93;;;3.90;99.90;;;;;;5033604;28;20025;-67
2022/01/10 07:24:07;;;;;;;22.83;11.27;;;3.80;99.90;;;;;;5033469;28;20021;-66
2022/01/10 07:26:32;;;;;;;;;;;3.80;99.90;;;;;;5034589;28;20044;-66
2022/01/10 07:28:59;;;;;;;20.20;11.55;;;3.80;99.90;;;;;;5033927;28;19905;-67
2022/01/10 07:31:25;;;;;;;19.50;11.45;;;3.70;99.90;;;;;;5034023;28;20053;-67
2022/01/10 07:33:50;;;;;;;19.03;11.20;;;3.80;99.90;;;;;;5034761;28;20120;-66
2022/01/10 07:36:16;;;;;;;22.53;12.30;;;4.10;99.90;;;;;;5034174;28;20033;-65
2022/01/10 07:38:42;;;;;;;22.58;11.65;;;4.20;99.90;;;;;;5033864;28;20029;-68
2022/01/10 07:41:08;;;;;;;20.43;11.50;;;4.00;99.90;;;;;;5032203;28;20033;-68
2022/01/10 07:43:34;;;;;;;22.83;11.73;;;4.00;99.90;;;;;;5033403;28;20026;-69
2022/01/10 07:46:00;;;;;;;21.60;12.27;;;3.90;99.90;;;;;;5033337;28;20048;-68
2022/01/10 07:48:29;;;;;;;22.48;10.93;;;3.90;99.90;;;;;;5033889;28;20029;-68
2022/01/10 07:50:55;;;;;;;23.33;12.63;;;3.90;99.90;;;;;;5032063;28;20026;-68
2022/01/10 07:53:21;;;;;;;19.77;11.65;;;4.00;99.90;;;;;;5033721;28;20052;-68
2022/01/10 07:55:46;;;;;;;21.35;12.70;;;4.30;99.90;;;;;;5033410;28;20029;-68
2022/01/10 07:58:13;;;;;;;24.23;12.37;;;4.20;99.90;;;;;;5033070;28;20033;-68
2022/01/10 08:00:39;;;;;;;24.85;12.48;;;4.10;99.90;;;;;;5033356;28;20021;-68
2022/01/10 08:03:04;;;;;;;24.00;13.07;;;4.10;99.90;;;;;;5033093;28;20058;-68
2022/01/10 08:05:30;;;;;;;22.63;12.37;;;4.10;99.90;;;;;;5031834;28;20021;-68
2022/01/10 08:07:56;;;;;;;22.73;12.95;;;4.10;99.90;;;;;;5033396;28;20128;-68
2022/01/10 08:10:22;;;;;;;23.50;13.18;;;4.10;99.90;;;;;;5032965;28;20029;-70
2022/01/10 08:12:47;;;;;;;25.87;13.17;;;4.10;99.90;;;;;;5031617;28;20021;-67
2022/01/10 08:15:14;;;;;;;31.60;14.50;;;4.20;99.90;;;;;;5032289;28;20140;-66
2022/01/10 08:17:41;;;;;;;25.73;13.73;;;4.20;99.90;;;;;;5032835;28;20025;-68
2022/01/10 08:20:08;;;;;;;27.42;13.35;;;4.30;99.90;;;;;;5033417;28;20045;-68
2022/01/10 08:22:34;;;;;;;20.67;12.57;;;4.20;99.90;;;;;;5034171;28;20040;-69
2022/01/10 08:25:01;;;;;;;24.77;12.90;;;4.20;99.90;;;;;;5033598;28;20040;-69
2022/01/10 08:27:26;;;;;;;22.65;13.20;;;4.30;99.90;;;;;;5033119;28;20490;-68
2022/01/10 08:29:52;;;;;;;23.40;12.57;;;4.40;99.90;;;;;;5033355;28;20478;-68
2022/01/10 08:32:19;;;;;;;26.20;12.87;;;4.50;99.90;;;;;;5035591;28;20034;-68
2022/01/10 08:34:45;;;;;;;22.10;12.00;;;4.50;99.90;;;;;;5036846;28;20394;-68
2022/01/10 08:37:10;;;;;;;26.83;12.30;;;4.40;99.90;;;;;;5034745;28;20100;-66
2022/01/10 08:39:37;;;;;;;17.02;12.20;;;4.40;99.90;;;;;;5033785;28;20544;-67
2022/01/10 08:42:03;;;;;;;;;;;4.40;99.90;;;;;;5033312;28;20026;-67
2022/01/10 08:44:29;;;;;;;24.05;12.60;;;4.50;99.90;;;;;;5032828;28;19905;-67
2022/01/10 08:46:55;;;;;;;24.70;12.43;;;4.80;99.90;;;;;;5033347;28;20024;-67
2022/01/10 08:49:21;;;;;;;25.02;12.68;;;4.80;99.90;;;;;;5033882;28;20018;-68
2022/01/10 08:51:49;;;;;;;26.60;12.25;;;5.00;99.90;;;;;;5033175;28;20068;-68
2022/01/10 08:54:15;;;;;;;23.48;13.00;;;4.90;99.90;;;;;;5034533;28;20049;-67
2022/01/10 08:56:41;;;;;;;19.37;11.97;;;5.00;99.90;;;;;;5035469;28;20022;-67
2022/01/10 08:59:06;;;;;;;26.43;12.53;;;5.00;99.90;;;;;;5036834;28;20129;-68
2022/01/10 09:01:33;;;;;;;25.70;12.73;;;5.10;99.90;;;;;;5036460;28;20022;-68
2022/01/10 09:03:59;;;;;;;22.88;13.05;;;5.00;99.90;;;;;;5036941;28;20462;-70
2022/01/10 09:06:25;;;;;;;26.77;16.42;;;4.90;99.90;;;;;;5039687;28;20030;-70
2022/01/10 09:08:52;;;;;;;20.75;12.68;;;5.00;99.90;;;;;;5048947;28;20048;-70
2022/01/10 09:11:18;;;;;;;27.25;15.55;;;4.90;99.90;;;;;;5041293;28;20017;-67
2022/01/10 09:13:44;;;;;;;20.03;12.67;;;4.90;99.90;;;;;;5035729;28;20034;-68
2022/01/10 09:16:11;;;;;;;24.40;12.98;;;4.80;99.90;;;;;;5036761;28;20025;-67
2022/01/10 09:18:37;;;;;;;21.08;12.30;;;4.90;99.90;;;;;;5036111;28;20080;-67
2022/01/10 09:21:03;;;;;;;27.40;12.30;;;4.90;99.90;;;;;;5036168;28;20021;-68
2022/01/10 09:23:29;;;;;;;23.52;12.65;;;5.00;99.90;;;;;;5036358;28;20025;-69
2022/01/10 09:25:55;;;;;;;22.20;12.63;;;5.10;99.90;;;;;;5036016;28;20018;-69
2022/01/10 09:28:21;;;;;;;16.50;11.50;;;5.30;99.90;;;;;;5036086;28;20535;-69
2022/01/10 09:30:47;;;;;;;21.40;13.33;;;5.50;99.90;;;;;;5035804;28;20047;-68
2022/01/10 09:33:13;;;;;;;;;;;5.70;99.90;;;;;;5034727;28;20318;-69
2022/01/10 09:35:40;;;;;;;18.27;11.02;;;6.00;99.90;;;;;;5035539;28;19909;-68
2022/01/10 09:38:07;;;;;;;22.92;11.90;;;6.00;99.90;;;;;;5035588;28;20119;-69
2022/01/10 09:40:33;;;;;;;22.85;12.88;;;6.00;99.90;;;;;;5035360;28;20112;-68
2022/01/10 09:42:59;;;;;;;20.77;11.15;;;5.90;99.90;;;;;;5040430;28;20017;-68
2022/01/10 09:45:27;;;;;;;21.00;10.70;;;5.90;99.90;;;;;;5040170;28;20087;-68
2022/01/10 09:47:53;;;;;;;18.13;9.35;;;5.80;99.90;;;;;;5038110;28;20474;-67
2022/01/10 09:50:19;;;;;;;15.65;8.75;;;5.60;99.90;;;;;;5038032;28;20108;-67
2022/01/10 09:52:49;;;;;;;12.27;7.28;;;5.60;99.90;;;;;;5035151;28;20034;-66
2022/01/10 09:55:15;;;;;;;14.02;6.65;;;5.60;99.90;;;;;;5035910;28;20481;-66
2022/01/10 09:57:41;;;;;;;14.25;7.20;;;5.60;99.90;;;;;;5035311;28;20034;-67
2022/01/10 10:00:09;;;;;;;14.40;6.80;;;5.60;99.90;;;;;;5035062;28;20026;-67
2022/01/10 10:02:36;;;;;;;11.18;6.07;;;5.80;99.90;;;;;;5035539;28;20028;-67
2022/01/10 10:05:07;;;;;;;13.80;6.38;;;5.90;99.90;;;;;;5036400;28;20017;-70
2022/01/10 10:07:33;;;;;;;14.32;6.57;;;6.00;99.90;;;;;;5035378;28;20087;-68
2022/01/10 10:10:08;;;;;;;10.65;6.22;;;6.00;99.90;;;;;;5036644;28;20430;-68
2022/01/10 10:12:34;;;;;;;16.20;6.75;;;6.10;99.90;;;;;;5035405;28;20029;-68
2022/01/10 10:15:02;;;;;;;20.95;6.15;;;6.30;99.90;;;;;;5035749;28;20025;-67
2022/01/10 10:17:29;;;;;;;15.57;6.13;;;6.40;99.90;;;;;;5034958;28;20055;-67
2022/01/10 10:19:54;;;;;;;13.93;6.00;;;6.60;99.90;;;;;;5035049;28;20323;-66
2022/01/10 10:22:21;;;;;;;12.23;5.20;;;6.80;99.90;;;;;;5034812;28;20037;-69
2022/01/10 10:24:48;;;;;;;13.65;5.35;;;6.90;99.90;;;;;;5033404;28;20053;-67
2022/01/10 10:27:14;;;;;;;;;;;7.00;99.90;;;;;;5034323;28;20026;-66
2022/01/10 10:29:41;;;;;;;;;;;6.90;99.90;;;;;;5034734;28;19906;-66
2022/01/10 10:32:09;;;;;;;;;;;7.00;99.90;;;;;;5035255;28;19917;-66
2022/01/10 10:34:35;;;;;;;;;;;7.00;99.90;;;;;;5035253;28;19916;-66
2022/01/10 10:37:06;;;;;;;;;;;7.00;99.90;;;;;;5035692;28;19952;-66
2022/01/10 10:39:36;;;;;;;;;;;7.10;99.90;;;;;;5035275;28;20278;-67
2022/01/10 10:42:03;;;;;;;;;;;7.30;99.90;;;;;;5035352;28;19912;-67
2022/01/10 10:44:29;;;;;;;;;;;7.30;99.90;;;;;;5035608;28;19985;-66
2022/01/10 10:46:56;;;;;;;;;;;7.20;99.90;;;;;;5033516;28;19963;-65
2022/01/10 10:49:30;;;;;;;;;;;7.10;99.90;;;;;;5035009;28;20300;-66
2022/01/10 10:51:55;;;;;;;;;;;7.30;99.90;;;;;;5035221;28;19911;-66
2022/01/10 10:54:22;;;;;;;;;;;7.60;99.90;;;;;;5035131;28;19904;-65
2022/01/10 10:56:47;;;;;;;;;;;7.40;99.90;;;;;;5034933;28;19905;-66
2022/01/10 10:59:13;;;;;;;;;;;7.50;99.90;;;;;;5034941;28;20046;-65
2022/01/10 11:01:40;;;;;;;;;;;7.60;99.90;;;;;;5034335;28;19951;-65
2022/01/10 11:04:06;;;;;;;;;;;7.70;99.90;;;;;;5034605;28;19913;-63
2022/01/10 11:06:32;;;;;;;;;;;7.80;99.90;;;;;;5034817;28;19912;-66
2022/01/10 11:09:00;;;;;;;;;;;7.80;99.90;;;;;;5034884;28;19905;-66
2022/01/10 11:11:26;;;;;;;;;;;7.80;99.90;;;;;;5033522;28;19936;-67
2022/01/10 11:13:55;;;;;;;;;;;7.90;99.90;;;;;;5034783;28;19905;-66
2022/01/10 11:16:21;;;;;;;;;;;7.90;99.90;;;;;;5034320;28;20000;-68
2022/01/10 11:18:48;;;;;;;;;;;7.70;99.90;;;;;;5034720;28;19936;-67
2022/01/10 11:21:13;;;;;;;;;;;7.40;99.90;;;;;;5034487;28;19912;-68
2022/01/10 11:23:40;;;;;;;;;;;7.40;99.90;;;;;;5033561;28;20290;-67
2022/01/10 11:26:07;;;;;;;;;;;7.20;99.90;;;;;;5033755;28;20358;-66
2022/01/10 11:28:32;;;;;;;;;;;7.10;99.90;;;;;;5034698;28;19905;-67
2022/01/10 11:30:58;;;;;;;;;;;7.10;99.90;;;;;;5034685;28;19959;-67
2022/01/10 11:33:26;;;;;;;;;;;7.10;99.90;;;;;;5034882;28;19912;-67
2022/01/10 11:35:58;;;;;;;;;;;7.00;99.90;;;;;;5032827;28;20480;-67
2022/01/10 11:38:23;;;;;;;;;;;7.00;99.90;;;;;;5034215;28;20282;-67
2022/01/10 11:40:51;;;;;;;;;;;6.90;99.90;;;;;;5034060;28;19905;-67
2022/01/10 11:43:37;;;;;;;;;;;6.90;99.90;;;;;;5032716;28;19905;-66
2022/01/10 11:46:11;;;;;;;;;;;7.10;99.90;;;;;;5034025;28;19912;-66
2022/01/10 11:48:45;;;;;;;;;;;7.00;99.90;;;;;;5034115;28;19935;-69
2022/01/10 11:51:16;;;;;;;;;;;6.90;99.90;;;;;;5034184;28;20369;-66
2022/01/10 11:53:45;;;;;;;;;;;6.90;99.90;;;;;;5033770;28;19905;-66
2022/01/10 11:56:27;;;;;;;;;;;6.90;99.90;;;;;;5034169;28;19996;-66
2022/01/10 11:59:28;;;;;;;;;;;7.00;99.90;;;;;;5032150;28;20004;-66
2022/01/10 12:01:54;;;;;;;;;;;7.10;99.90;;;;;;4992056;28;20347;-67
2022/01/10 12:04:20;;;;;;;;;;;7.30;99.90;;;;;;5025116;28;19905;-67
2022/01/10 12:06:46;;;;;;;;;;;7.30;99.90;;;;;;5033951;28;19959;-66
2022/01/10 12:09:12;;;;;;;;;;;7.40;99.90;;;;;;5033760;28;19905;-66
2022/01/10 12:11:39;;;;;;;;;;;7.60;99.90;;;;;;5034201;28;19927;-67
2022/01/10 12:14:06;;;;;;;;;;;7.60;99.90;;;;;;5034289;28;19912;-68
2022/01/10 12:16:32;;;;;;;;;;;7.60;99.90;;;;;;5033539;28;20374;-67
2022/01/10 12:18:58;;;;;;;;;;;7.60;99.90;;;;;;5033606;28;19935;-67
2022/01/10 12:21:25;;;;;;;;;;;7.40;99.90;;;;;;5033603;28;19905;-67
2022/01/10 12:23:52;;;;;;;;;;;7.30;99.90;;;;;;5034118;28;19973;-67
2022/01/10 12:26:22;;;;;;;;;;;7.30;99.90;;;;;;5033057;28;20016;-66
2022/01/10 12:28:52;;;;;;;;;;;7.30;99.90;;;;;;5036175;28;20043;-66
2022/01/10 12:31:19;;;;;;;;;;;7.20;99.90;;;;;;5037918;28;19955;-66
2022/01/10 12:33:45;;;;;;;;;;;7.00;99.90;;;;;;5038726;28;19913;-67
2022/01/10 12:36:11;;;;;;;;;;;7.00;99.90;;;;;;5039085;28;19935;-66
2022/01/10 12:38:36;;;;;;;;;;;7.10;99.90;;;;;;5036233;28;19920;-67
2022/01/10 12:41:02;;;;;;;;;;;7.10;99.90;;;;;;5037313;28;19905;-67
2022/01/10 12:43:27;;;;;;;;;;;7.20;99.90;;;;;;5037093;28;19905;-67
2022/01/10 12:45:53;;;;;;;;;;;7.10;99.90;;;;;;5037067;28;19911;-67
2022/01/10 12:48:22;;;;;;;;;;;7.10;99.90;;;;;;5037092;28;19905;-67
2022/01/10 12:50:48;;;;;;;;;;;7.10;99.90;;;;;;5036833;28;19905;-67
2022/01/10 12:53:14;;;;;;;;;;;7.30;99.90;;;;;;5037103;28;19912;-67
2022/01/10 12:55:40;;;;;;;;;;;7.40;99.90;;;;;;5037115;28;19905;-66
2022/01/10 12:58:06;;;;;;;;;;;7.50;99.90;;;;;;5035667;28;20262;-66
2022/01/10 13:00:32;;;;;;;;;;;7.50;99.90;;;;;;5038693;28;19905;-66
2022/01/10 13:03:01;;;;;;;;;;;7.50;99.90;;;;;;5038725;28;19912;-66
2022/01/10 13:05:27;;;;;;;;;;;7.40;99.90;;;;;;5037530;28;19909;-67
2022/01/10 13:07:53;;;;;;;;;;;7.40;99.90;;;;;;5036873;28;19934;-67
2022/01/10 13:10:22;;;;;;;;;;;7.50;99.90;;;;;;5037446;28;20380;-67
2022/01/10 13:12:49;;;;;;;;;;;7.40;99.90;;;;;;5038025;28;19905;-66
2022/01/10 13:15:15;;;;;;;;;;;7.30;99.90;;;;;;5037123;28;19905;-65
2022/01/10 13:17:51;;;;;;;;;;;7.20;99.90;;;;;;5037316;28;19916;-67